Terminal Aerodrome Forecast
Issued by NWS

Home | Current Version | Previous Version | Graphics & Text | Print | Product List | Glossary On
Versions: 1 2 3 4 5 6 7 8 9 10 11 12 13 14 15 16 17 18 19 20 21 22
136
FTUS43 KABR 090520
TAFATY
TAF
KATY 090520Z 0906/1006 34015KT P6SM OVC025
     FM090800 34015G22KT P6SM BKN015
     FM091100 34011KT P6SM BKN020
     FM091500 32009KT P6SM SCT060
     FM092100 27008KT P6SM SCT200=

USA.gov is the U.S. government's official web portal to all federal, state and local government web resources and services.